Time;durP1;ratioP1;P1;durP2;ratioP2;P2;SDS_P1;SDS_P2;PMS_P1;PMS_P2;Temp;Humidity;BMP_temperature;BMP_pressure;BME280_temperature;BME280_humidity;BME280_pressure;Samples;Min_cycle;Max_cycle;Signal;HPM_P1;HPM_P2
2024/03/08 00:01:33;;;;;;;;;;;;;;;20.69;31.01;100672.19;4264593;27;19919;-57
2024/03/08 00:03:35;;;;;;;;;;;;;;;20.68;31.19;100674.03;4264858;27;19919;-57
2024/03/08 00:05:39;;;;;;;;;;;;;;;20.66;31.29;100669.78;4264678;27;19919;-57
2024/03/08 00:07:41;;;;;;;;;;;;;;;20.66;31.19;100675.13;4246567;28;20019;-57
2024/03/08 00:09:43;;;;;;;;;;;;;;;20.66;31.15;100670.63;4265079;27;19941;-57
2024/03/08 00:11:44;;;;;;;;;;;;;;;20.65;30.91;100668.06;4264940;27;19963;-56
2024/03/08 00:13:46;;;;;;;;;;;;;;;20.64;30.90;100667.19;4264968;27;19923;-56
2024/03/08 00:15:48;;;;;;;;;;;;;;;20.63;31.08;100667.34;4264614;27;19919;-57
2024/03/08 00:17:50;;;;;;;;;;;;;;;20.66;30.99;100669.78;4264875;27;19919;-57
2024/03/08 00:19:52;;;;;;;;;;;;;;;20.67;31.03;100666.97;4264734;27;19919;-57
2024/03/08 00:21:55;;;;;;;;;;;;;;;20.65;31.01;100652.03;4264839;27;19919;-58
2024/03/08 00:23:56;;;;;;;;;;;;;;;20.64;31.27;100661.03;4264644;27;19926;-57
2024/03/08 00:25:58;;;;;;;;;;;;;;;20.61;31.29;100653.22;4264631;27;19919;-58
2024/03/08 00:28:00;;;;;;;;;;;;;;;20.62;30.83;100654.94;4264810;27;19919;-57
2024/03/08 00:30:02;;;;;;;;;;;;;;;20.64;30.95;100647.66;4264257;27;20033;-58
2024/03/08 00:32:04;;;;;;;;;;;;;;;20.61;31.15;100645.22;4264886;27;19919;-57
2024/03/08 00:34:05;;;;;;;;;;;;;;;20.61;30.95;100642.53;4246370;28;20322;-58
2024/03/08 00:36:07;;;;;;;;;;;;;;;20.59;31.06;100637.34;4264621;27;19972;-58
2024/03/08 00:38:09;;;;;;;;;;;;;;;20.57;31.24;100637.47;4264766;27;20342;-57
2024/03/08 00:40:11;;;;;;;;;;;;;;;20.61;30.89;100637.19;4264723;27;19919;-57
2024/03/08 00:42:13;;;;;;;;;;;;;;;20.60;30.85;100636.38;4264664;27;19954;-57
2024/03/08 00:44:15;;;;;;;;;;;;;;;20.58;31.09;100625.81;4264115;27;19919;-58
2024/03/08 00:46:17;;;;;;;;;;;;;;;20.59;31.16;100621.31;4264769;27;20297;-58
2024/03/08 00:48:18;;;;;;;;;;;;;;;20.59;30.91;100618.63;4246205;28;19927;-58
2024/03/08 00:50:20;;;;;;;;;;;;;;;20.58;30.87;100617.78;4265452;27;19919;-58
2024/03/08 00:52:24;;;;;;;;;;;;;;;20.60;30.89;100623.00;4267957;27;19950;-57
2024/03/08 00:54:26;;;;;;;;;;;;;;;20.58;30.86;100617.78;4267783;27;19971;-57
2024/03/08 00:56:27;;;;;;;;;;;;;;;20.56;31.11;100618.84;4267756;27;19919;-57
2024/03/08 00:58:29;;;;;;;;;;;;;;;20.54;30.83;100608.31;4267290;27;20282;-57
2024/03/08 01:00:31;;;;;;;;;;;;;;;20.51;31.09;100603.22;4267610;27;19919;-57
2024/03/08 01:02:35;;;;;;;;;;;;;;;20.49;31.01;100601.66;4267645;27;20404;-58
2024/03/08 01:04:37;;;;;;;;;;;;;;;20.50;30.99;100598.84;4267551;27;19926;-57
2024/03/08 01:06:38;;;;;;;;;;;;;;;20.50;30.83;100597.97;4249065;27;19944;-57
2024/03/08 01:08:42;;;;;;;;;;;;;;;20.50;31.17;100590.84;4267402;27;20374;-57
2024/03/08 01:10:43;;;;;;;;;;;;;;;20.49;30.94;100590.97;4267625;27;19980;-58
2024/03/08 01:12:45;;;;;;;;;;;;;;;20.49;31.08;100591.78;4267141;27;19919;-56
2024/03/08 01:14:47;;;;;;;;;;;;;;;20.51;30.98;100583.66;4267447;27;19919;-57
2024/03/08 01:16:49;;;;;;;;;;;;;;;20.54;30.95;100584.25;4267470;27;20309;-58
2024/03/08 01:18:50;;;;;;;;;;;;;;;20.51;30.96;100570.28;4267548;27;19963;-58
2024/03/08 01:20:52;;;;;;;;;;;;;;;20.49;30.76;100570.41;4267463;27;19927;-58
2024/03/08 01:22:54;;;;;;;;;;;;;;;20.49;30.92;100565.09;4267317;27;19919;-57
2024/03/08 01:24:55;;;;;;;;;;;;;;;20.47;31.25;100571.53;4267344;27;19940;-58
2024/03/08 01:26:57;;;;;;;;;;;;;;;20.44;31.05;100572.63;4267040;27;20334;-58
2024/03/08 01:28:59;;;;;;;;;;;;;;;20.46;31.26;100569.81;4267644;27;19965;-58
2024/03/08 01:31:00;;;;;;;;;;;;;;;20.47;30.95;100569.69;4267292;27;19998;-57
2024/03/08 01:33:02;;;;;;;;;;;;;;;20.47;30.96;100567.00;4248928;27;20317;-57
2024/03/08 01:35:04;;;;;;;;;;;;;;;20.49;31.01;100564.25;4267260;27;20278;-58
2024/03/08 01:37:06;;;;;;;;;;;;;;;20.46;30.94;100557.28;4266960;27;19918;-57
2024/03/08 01:39:09;;;;;;;;;;;;;;;20.48;31.12;100559.88;4267146;27;19919;-57
2024/03/08 01:41:12;;;;;;;;;;;;;;;20.47;30.96;100556.31;4267144;27;19923;-58
2024/03/08 01:43:17;;;;;;;;;;;;;;;20.45;30.86;100547.63;4266641;27;19919;-57
2024/03/08 01:45:19;;;;;;;;;;;;;;;20.46;31.25;100543.09;4266923;27;19919;-57
2024/03/08 01:47:22;;;;;;;;;;;;;;;20.42;30.99;100539.84;4266992;27;19925;-57
2024/03/08 01:49:26;;;;;;;;;;;;;;;20.40;31.05;100528.41;4266984;27;20369;-57
2024/03/08 01:51:29;;;;;;;;;;;;;;;20.36;30.83;100527.81;4266979;27;19919;-57
2024/03/08 01:53:31;;;;;;;;;;;;;;;20.37;31.25;100531.34;4267059;27;19919;-55
2024/03/08 01:55:35;;;;;;;;;;;;;;;20.36;30.91;100524.28;4266958;27;19923;-58
2024/03/08 01:57:38;;;;;;;;;;;;;;;20.37;31.35;100526.00;4266440;27;19918;-57
2024/03/08 01:59:41;;;;;;;;;;;;;;;20.38;31.03;100528.53;4266662;27;19919;-57
2024/03/08 02:01:43;;;;;;;;;;;;;;;20.36;31.21;100522.47;4266199;27;20013;-57
2024/03/08 02:03:44;;;;;;;;;;;;;;;20.38;31.03;100517.84;4266730;27;20494;-57
2024/03/08 02:05:46;;;;;;;;;;;;;;;20.37;30.97;100518.81;4266529;27;19952;-57
2024/03/08 02:07:48;;;;;;;;;;;;;;;20.36;30.98;100500.25;4266710;27;19926;-57
2024/03/08 02:09:50;;;;;;;;;;;;;;;20.39;31.11;100502.66;4266573;27;20385;-56
2024/03/08 02:11:54;;;;;;;;;;;;;;;20.35;31.14;100501.22;4266324;27;19926;-57
2024/03/08 02:13:56;;;;;;;;;;;;;;;20.34;31.20;100502.19;4266694;27;19923;-57
2024/03/08 02:16:01;;;;;;;;;;;;;;;20.31;31.06;100489.94;4266387;27;20009;-57
2024/03/08 02:18:02;;;;;;;;;;;;;;;20.29;30.94;100485.69;4266616;27;19977;-57
2024/03/08 02:20:04;;;;;;;;;;;;;;;20.31;31.10;100483.75;4266321;27;19919;-58
2024/03/08 02:22:06;;;;;;;;;;;;;;;20.32;31.14;100483.63;4266444;27;19926;-56
2024/03/08 02:24:08;;;;;;;;;;;;;;;20.32;31.15;100477.47;4248061;27;19962;-57
2024/03/08 02:26:09;;;;;;;;;;;;;;;20.32;30.97;100485.47;4266108;27;19958;-57
2024/03/08 02:28:11;;;;;;;;;;;;;;;20.34;31.06;100473.69;4266227;27;19926;-57
2024/03/08 02:30:13;;;;;;;;;;;;;;;20.32;31.00;100475.63;4266308;27;19949;-56
2024/03/08 02:32:15;;;;;;;;;;;;;;;20.30;31.29;100466.03;4266337;27;19954;-57
2024/03/08 02:34:17;;;;;;;;;;;;;;;20.32;31.05;100459.59;4266114;27;19923;-57
2024/03/08 02:36:18;;;;;;;;;;;;;;;20.30;31.02;100460.69;4266252;27;20013;-58
2024/03/08 02:38:21;;;;;;;;;;;;;;;20.29;31.21;100457.16;4266188;27;19963;-57
2024/03/08 02:40:22;;;;;;;;;;;;;;;20.27;31.15;100454.63;4247438;27;19954;-58
2024/03/08 02:42:24;;;;;;;;;;;;;;;20.26;30.91;100450.25;4265981;27;19954;-58
2024/03/08 02:44:26;;;;;;;;;;;;;;;20.25;31.37;100445.88;4266115;27;19948;-58
2024/03/08 02:46:27;;;;;;;;;;;;;;;20.25;31.18;100447.72;4266033;27;19969;-58
2024/03/08 02:48:29;;;;;;;;;;;;;;;20.28;31.08;100442.13;4265974;27;20009;-57
2024/03/08 02:50:30;;;;;;;;;;;;;;;20.26;31.08;100439.56;4265967;27;19972;-58
2024/03/08 02:52:33;;;;;;;;;;;;;;;20.26;31.16;100431.56;4266037;27;20339;-57
2024/03/08 02:54:36;;;;;;;;;;;;;;;20.27;31.23;100427.09;4265545;27;19919;-57
2024/03/08 02:56:38;;;;;;;;;;;;;;;20.25;31.28;100421.84;4265897;27;19923;-57
2024/03/08 02:58:39;;;;;;;;;;;;;;;20.23;31.17;100422.94;4265752;27;20437;-57
2024/03/08 03:00:41;;;;;;;;;;;;;;;20.07;30.98;100391.31;4266092;27;19919;-57
2024/03/08 03:02:43;;;;;;;;;;;;;;;20.22;30.98;100413.22;4265491;27;19923;-57
2024/03/08 03:04:44;;;;;;;;;;;;;;;20.20;31.16;100408.03;4265845;27;19954;-58
2024/03/08 03:06:46;;;;;;;;;;;;;;;20.18;31.34;100401.94;4265493;27;19963;-58
2024/03/08 03:08:48;;;;;;;;;;;;;;;20.21;31.24;100403.56;4265497;27;20381;-56
2024/03/08 03:10:50;;;;;;;;;;;;;;;20.21;31.29;100398.22;4265710;27;19919;-58
2024/03/08 03:12:52;;;;;;;;;;;;;;;20.21;31.13;100388.38;4265053;27;20429;-57
2024/03/08 03:14:54;;;;;;;;;;;;;;;20.19;31.18;100384.97;4265638;27;20573;-58
2024/03/08 03:16:55;;;;;;;;;;;;;;;20.19;31.18;100384.13;4265711;27;20010;-56
2024/03/08 03:18:58;;;;;;;;;;;;;;;20.20;31.20;100380.50;4265656;27;19925;-58
2024/03/08 03:21:03;;;;;;;;;;;;;;;20.20;30.83;100378.66;4247152;27;20517;-58
2024/03/08 03:23:08;;;;;;;;;;;;;;;20.17;31.24;100367.38;4246763;27;19976;-58
2024/03/08 03:25:09;;;;;;;;;;;;;;;20.18;31.05;100369.06;4265554;27;19919;-57
2024/03/08 03:27:11;;;;;;;;;;;;;;;20.18;30.98;100374.41;4265461;27;19919;-58
2024/03/08 03:29:13;;;;;;;;;;;;;;;20.14;31.13;100365.81;4265728;27;19991;-57
2024/03/08 03:31:15;;;;;;;;;;;;;;;20.14;30.94;100372.97;4265194;27;19919;-57
2024/03/08 03:33:22;;;;;;;;;;;;;;;20.15;31.03;100367.50;4265416;27;19925;-57
2024/03/08 03:35:29;;;;;;;;;;;;;;;20.16;30.93;100366.53;4265272;27;19919;-57
2024/03/08 03:37:30;;;;;;;;;;;;;;;20.18;31.18;100358.41;4265032;27;20385;-56
2024/03/08 03:39:32;;;;;;;;;;;;;;;20.18;31.07;100359.22;4265392;27;19919;-56
2024/03/08 03:41:34;;;;;;;;;;;;;;;20.17;31.14;100351.34;4265211;27;20002;-57
2024/03/08 03:43:39;;;;;;;;;;;;;;;20.14;31.16;100341.78;4265115;27;19987;-56
2024/03/08 03:45:41;;;;;;;;;;;;;;;20.13;31.22;100333.91;4265259;27;20001;-57
2024/03/08 03:47:43;;;;;;;;;;;;;;;20.09;31.24;100334.13;4265328;27;19975;-56
2024/03/08 03:49:45;;;;;;;;;;;;;;;20.09;30.97;100335.97;4265304;27;20001;-56
2024/03/08 03:51:47;;;;;;;;;;;;;;;20.08;31.21;100342.28;4265343;27;19925;-56
2024/03/08 03:53:48;;;;;;;;;;;;;;;20.07;31.19;100338.78;4265050;27;20420;-56
2024/03/08 03:55:50;;;;;;;;;;;;;;;20.05;31.20;100347.84;4265186;27;19957;-57
2024/03/08 03:57:52;;;;;;;;;;;;;;;20.05;31.29;100358.53;4265230;27;19919;-57
2024/03/08 03:59:53;;;;;;;;;;;;;;;20.08;31.15;100352.97;4265123;27;19972;-57
2024/03/08 04:01:55;;;;;;;;;;;;;;;20.09;31.09;100347.50;4265059;27;19919;-55
2024/03/08 04:03:56;;;;;;;;;;;;;;;20.13;31.12;100345.41;4264870;27;20017;-53
2024/03/08 04:05:58;;;;;;;;;;;;;;;20.13;31.13;100341.91;4264643;27;19929;-56
2024/03/08 04:08:00;;;;;;;;;;;;;;;20.14;31.15;100340.94;4264647;27;20347;-55
2024/03/08 04:10:06;;;;;;;;;;;;;;;20.09;31.02;100342.16;4264897;27;19964;-56
2024/03/08 04:12:09;;;;;;;;;;;;;;;20.10;31.10;100341.19;4264985;27;19919;-57
2024/03/08 04:14:11;;;;;;;;;;;;;;;20.09;31.02;100342.16;4265010;27;20323;-58
2024/03/08 04:16:12;;;;;;;;;;;;;;;20.09;31.03;100346.66;4264738;27;20290;-57
2024/03/08 04:18:14;;;;;;;;;;;;;;;20.11;30.90;100342.03;4264995;27;19922;-57
2024/03/08 04:20:17;;;;;;;;;;;;;;;20.08;31.18;100353.78;4265078;27;19954;-55
2024/03/08 04:22:19;;;;;;;;;;;;;;;20.07;31.18;100345.91;4264631;27;20021;-57
2024/03/08 04:24:20;;;;;;;;;;;;;;;20.07;31.11;100340.59;4247387;27;19919;-56
2024/03/08 04:26:22;;;;;;;;;;;;;;;20.07;31.09;100341.44;4268707;27;19919;-57
2024/03/08 04:28:25;;;;;;;;;;;;;;;20.11;31.36;100342.03;4268443;27;19929;-57
2024/03/08 04:30:28;;;;;;;;;;;;;;;20.11;30.98;100329.53;4249960;27;19972;-57
2024/03/08 04:32:30;;;;;;;;;;;;;;;20.11;31.09;100334.88;4268379;27;19919;-57
2024/03/08 04:34:33;;;;;;;;;;;;;;;20.09;31.09;100325.28;4249904;27;19920;-56
2024/03/08 04:36:35;;;;;;;;;;;;;;;20.09;31.12;100327.97;4268064;27;20403;-57
2024/03/08 04:38:37;;;;;;;;;;;;;;;20.06;31.18;100325.53;4268307;27;19925;-56
2024/03/08 04:40:39;;;;;;;;;;;;;;;20.05;31.05;100318.50;4268061;27;19919;-56
2024/03/08 04:42:42;;;;;;;;;;;;;;;20.04;31.26;100311.50;4267930;27;20356;-56
2024/03/08 04:44:44;;;;;;;;;;;;;;;20.01;31.05;100301.88;4267806;27;19923;-56
2024/03/08 04:46:46;;;;;;;;;;;;;;;19.98;31.10;100286.13;4249639;27;19997;-55
2024/03/08 04:48:48;;;;;;;;;;;;;;;19.98;31.09;100285.28;4268001;27;19918;-56
2024/03/08 04:50:50;;;;;;;;;;;;;;;19.99;31.37;100290.50;4267650;27;20358;-56
2024/03/08 04:52:52;;;;;;;;;;;;;;;20.02;31.11;100297.41;4267853;27;19954;-56
2024/03/08 04:54:53;;;;;;;;;;;;;;;20.04;31.08;100295.47;4267915;27;19923;-55
2024/03/08 04:56:55;;;;;;;;;;;;;;;20.03;31.20;100299.94;4267703;27;19964;-56
2024/03/08 04:58:57;;;;;;;;;;;;;;;20.03;31.07;100301.78;4267813;27;20065;-56
2024/03/08 05:00:59;;;;;;;;;;;;;;;20.05;31.18;100305.16;4267759;27;19926;-56
2024/03/08 05:03:00;;;;;;;;;;;;;;;20.06;31.17;100302.38;4267719;27;19950;-57
2024/03/08 05:05:02;;;;;;;;;;;;;;;20.05;31.11;100294.47;4267185;27;19926;-56
2024/03/08 05:07:04;;;;;;;;;;;;;;;20.04;30.99;100300.81;4267344;27;20134;-56
2024/03/08 05:09:18;;;;;;;;;;;;;;;20.02;31.19;100294.75;4267694;27;19918;-56
2024/03/08 05:11:20;;;;;;;;;;;;;;;20.00;31.05;100289.53;4267803;27;20366;-56
2024/03/08 05:13:23;;;;;;;;;;;;;;;19.98;31.08;100282.59;4267668;27;19923;-56
2024/03/08 05:15:24;;;;;;;;;;;;;;;19.98;31.28;100283.47;4249158;27;19930;-56
2024/03/08 05:17:26;;;;;;;;;;;;;;;19.98;31.01;100283.47;4267573;27;20380;-56
2024/03/08 05:19:30;;;;;;;;;;;;;;;19.97;31.06;100279.09;4267216;27;19919;-56
2024/03/08 05:21:35;;;;;;;;;;;;;;;19.99;31.24;100282.50;4267519;27;19966;-55
2024/03/08 05:23:38;;;;;;;;;;;;;;;20.00;31.17;100264.66;4267572;27;19919;-56
2024/03/08 05:25:41;;;;;;;;;;;;;;;20.01;30.96;100264.50;4267355;27;20357;-57
2024/03/08 05:27:42;;;;;;;;;;;;;;;20.00;31.13;100264.66;4267457;27;19925;-56
2024/03/08 05:29:44;;;;;;;;;;;;;;;19.99;31.15;100268.28;4267228;27;19922;-56
2024/03/08 05:31:50;;;;;;;;;;;;;;;19.95;31.01;100268.56;4267415;27;19969;-56
2024/03/08 05:33:54;;;;;;;;;;;;;;;19.96;30.96;100256.03;4267030;27;19919;-56
2024/03/08 05:35:55;;;;;;;;;;;;;;;19.93;31.15;100259.81;4266454;27;19971;-56
2024/03/08 05:37:57;;;;;;;;;;;;;;;19.93;31.13;100256.31;4267401;27;19925;-56
2024/03/08 05:39:59;;;;;;;;;;;;;;;19.95;31.14;100254.34;4267176;27;19919;-56
2024/03/08 05:42:00;;;;;;;;;;;;;;;20.01;31.00;100253.00;4267107;27;19919;-56
2024/03/08 05:44:02;;;;;;;;;;;;;;;20.01;31.11;100258.34;4267153;27;19919;-56
2024/03/08 05:46:07;;;;;;;;;;;;;;;19.99;31.01;100255.81;4267155;27;19923;-56
2024/03/08 05:48:08;;;;;;;;;;;;;;;19.96;31.11;100253.38;4266659;27;19918;-56
2024/03/08 05:50:11;;;;;;;;;;;;;;;19.97;30.97;100262.25;4267011;27;19919;-56
2024/03/08 05:52:14;;;;;;;;;;;;;;;19.95;31.11;100254.34;4266976;27;19941;-57
2024/03/08 05:54:15;;;;;;;;;;;;;;;19.97;31.08;100252.41;4266874;27;19972;-56
2024/03/08 05:56:23;;;;;;;;;;;;;;;19.95;30.98;100249.88;4266711;27;19919;-56
2024/03/08 05:58:24;;;;;;;;;;;;;;;19.93;31.17;100254.47;4266777;27;19931;-56
2024/03/08 06:00:26;;;;;;;;;;;;;;;19.92;31.15;100263.47;4266868;27;19950;-57
2024/03/08 06:02:28;;;;;;;;;;;;;;;19.93;31.24;100258.97;4266344;27;20354;-57
2024/03/08 06:04:29;;;;;;;;;;;;;;;19.92;31.04;100263.47;4266583;27;19919;-56
2024/03/08 06:06:31;;;;;;;;;;;;;;;19.94;31.15;100268.69;4266415;27;20010;-57
2024/03/08 06:08:32;;;;;;;;;;;;;;;19.95;31.01;100259.69;4266619;27;19941;-55
2024/03/08 06:10:34;;;;;;;;;;;;;;;19.94;31.01;100268.69;4266628;27;20017;-57
2024/03/08 06:12:40;;;;;;;;;;;;;;;19.98;30.93;100271.91;4248227;27;20014;-57
2024/03/08 06:14:41;;;;;;;;;;;;;;;19.96;30.90;100266.72;4266791;27;19961;-57
2024/03/08 06:16:43;;;;;;;;;;;;;;;19.97;31.27;100259.56;4266616;27;20001;-57
2024/03/08 06:18:46;;;;;;;;;;;;;;;19.93;31.11;100246.47;4266316;27;20365;-56
2024/03/08 06:20:48;;;;;;;;;;;;;;;19.92;31.08;100251.94;4248220;27;19927;-56
2024/03/08 06:22:49;;;;;;;;;;;;;;;19.90;31.15;100252.09;4266481;27;19979;-56
2024/03/08 06:24:51;;;;;;;;;;;;;;;19.90;31.19;100240.53;4266362;27;20287;-56
2024/03/08 06:26:53;;;;;;;;;;;;;;;19.89;31.00;100245.03;4266329;27;19919;-55
2024/03/08 06:28:55;;;;;;;;;;;;;;;19.90;30.98;100237.88;4266306;27;19923;-56
2024/03/08 06:30:56;;;;;;;;;;;;;;;19.90;31.05;100236.06;4247870;27;19985;-55
2024/03/08 06:32:58;;;;;;;;;;;;;;;19.91;31.15;100234.25;4265953;27;19923;-56
2024/03/08 06:34:59;;;;;;;;;;;;;;;19.91;31.11;100240.41;4266046;27;19926;-56
2024/03/08 06:37:01;;;;;;;;;;;;;;;19.91;31.16;100239.56;4266383;27;19926;-54
2024/03/08 06:39:08;;;;;;;;;;;;;;;19.91;31.10;100232.41;4247797;27;20006;-56
2024/03/08 06:41:15;;;;;;;;;;;;;;;19.91;31.05;100223.56;4266224;27;20446;-57
2024/03/08 06:43:18;;;;;;;;;;;;;;;19.92;30.99;100233.25;4266016;27;19923;-55
2024/03/08 06:45:20;;;;;;;;;;;;;;;19.90;30.89;100236.06;4265860;27;19933;-57
2024/03/08 06:47:25;;;;;;;;;;;;;;;19.93;30.98;100240.31;4265264;27;20357;-57
2024/03/08 06:49:27;;;;;;;;;;;;;;;19.91;31.05;100239.56;4265386;27;19922;-56
2024/03/08 06:51:28;;;;;;;;;;;;;;;19.90;30.70;100235.19;4266072;27;19919;-58
2024/03/08 06:53:30;;;;;;;;;;;;;;;19.92;31.04;100234.09;4266100;27;19964;-57
2024/03/08 06:55:32;;;;;;;;;;;;;;;19.95;30.97;100230.31;4266001;27;19919;-57
2024/03/08 06:57:34;;;;;;;;;;;;;;;19.93;30.98;100230.47;4265970;27;20116;-57
2024/03/08 06:59:36;;;;;;;;;;;;;;;19.93;30.79;100226.97;4265905;27;19919;-57
2024/03/08 07:01:38;;;;;;;;;;;;;;;19.94;30.84;100229.50;4265407;27;19926;-57
2024/03/08 07:03:44;;;;;;;;;;;;;;;19.91;31.06;100236.91;4265454;27;19925;-57
2024/03/08 07:05:46;;;;;;;;;;;;;;;19.89;31.03;100237.03;4265402;27;19926;-57
2024/03/08 07:07:49;;;;;;;;;;;;;;;19.90;31.15;100221.84;4265852;27;19963;-57
2024/03/08 07:09:50;;;;;;;;;;;;;;;19.89;31.04;100214.81;4247716;27;19919;-56
2024/03/08 07:11:54;;;;;;;;;;;;;;;19.87;30.94;100212.28;4265439;27;19919;-57
2024/03/08 07:13:57;;;;;;;;;;;;;;;19.90;30.83;100211.19;4265561;27;19919;-57
2024/03/08 07:16:00;;;;;;;;;;;;;;;19.90;30.84;100214.72;4265313;27;19919;-52
2024/03/08 07:18:02;;;;;;;;;;;;;;;19.92;30.80;100207.41;4265571;27;20364;-57
2024/03/08 07:20:10;;;;;;;;;;;;;;;19.94;31.01;100210.81;4265572;27;19923;-57
2024/03/08 07:22:12;;;;;;;;;;;;;;;19.94;30.78;100213.47;4265533;27;19919;-55
2024/03/08 07:26:20;;;;;;;;;;;;;;;19.96;30.96;100202.66;4265383;27;19918;-56
2024/03/08 07:28:27;;;;;;;;;;;;;;;19.97;30.78;100190.19;4265399;27;19919;-57
2024/03/08 07:32:46;;;;;;;;;;;;;;;20.00;30.80;100209.47;4265215;27;19927;-54
2024/03/08 07:34:49;;;;;;;;;;;;;;;19.99;30.82;100201.56;4265537;27;19972;-57
2024/03/08 07:36:51;;;;;;;;;;;;;;;19.96;30.95;100192.00;4265461;27;19971;-56
2024/03/08 07:38:57;;;;;;;;;;;;;;;19.92;30.78;100196.72;4265479;27;20408;-56
2024/03/08 07:41:04;;;;;;;;;;;;;;;19.93;30.89;100190.44;4265222;27;19919;-58
2024/03/08 07:43:07;;;;;;;;;;;;;;;19.98;30.72;100189.19;4265222;27;19962;-57
2024/03/08 07:45:09;;;;;;;;;;;;;;;19.98;30.90;100197.19;4264991;27;20350;-57
2024/03/08 07:47:12;;;;;;;;;;;;;;;20.00;30.79;100195.25;4265320;27;20267;-57
2024/03/08 07:49:15;;;;;;;;;;;;;;;20.03;30.83;100195.00;4265383;27;19947;-57
2024/03/08 07:51:21;;;;;;;;;;;;;;;19.98;30.84;100208.72;4265053;27;20005;-57
2024/03/08 07:53:26;;;;;;;;;;;;;;;19.98;30.93;100199.84;4265227;27;19954;-57
2024/03/08 07:55:28;;;;;;;;;;;;;;;19.97;30.87;100203.53;4265313;27;20006;-57
2024/03/08 07:57:30;;;;;;;;;;;;;;;19.98;30.91;100202.53;4265153;27;19971;-57
2024/03/08 07:59:32;;;;;;;;;;;;;;;19.97;30.79;100195.53;4246104;27;19972;-57
2024/03/08 08:01:34;;;;;;;;;;;;;;;19.98;30.64;100194.53;4265119;27;20364;-57
2024/03/08 08:03:42;;;;;;;;;;;;;;;19.95;30.71;100193.81;4264881;27;19919;-57
2024/03/08 08:05:43;;;;;;;;;;;;;;;19.94;30.79;100186.78;4264778;27;20367;-55
2024/03/08 08:07:46;;;;;;;;;;;;;;;19.94;30.82;100186.78;4265202;27;20384;-57
2024/03/08 08:09:50;;;;;;;;;;;;;;;19.95;30.84;100187.63;4264916;27;19919;-58
2024/03/08 08:11:51;;;;;;;;;;;;;;;19.97;30.75;100184.84;4265040;27;19926;-57
2024/03/08 08:13:54;;;;;;;;;;;;;;;19.95;30.69;100175.13;4264751;27;20382;-57
2024/03/08 08:15:56;;;;;;;;;;;;;;;19.97;30.81;100175.00;4265117;27;19929;-56
2024/03/08 08:17:58;;;;;;;;;;;;;;;19.98;30.76;100173.16;4264796;27;19919;-57
2024/03/08 08:19:59;;;;;;;;;;;;;;;19.97;30.63;100176.84;4264819;27;20013;-56
2024/03/08 08:22:02;;;;;;;;;;;;;;;19.99;30.57;100174.88;4263806;27;20331;-57
2024/03/08 08:24:04;;;;;;;;;;;;;;;19.98;30.59;100167.81;4234995;28;19919;-57
2024/03/08 08:26:07;;;;;;;;;;;;;;;20.00;30.64;100168.56;4231226;28;20001;-58
2024/03/08 08:28:09;;;;;;;;;;;;;;;19.97;30.62;100156.31;4242657;27;19919;-56
2024/03/08 08:30:11;;;;;;;;;;;;;;;19.94;30.88;100153.94;4228566;28;20019;-54
2024/03/08 08:32:12;;;;;;;;;;;;;;;19.94;30.72;100156.59;4246937;28;19938;-56
2024/03/08 08:34:14;;;;;;;;;;;;;;;19.94;30.72;100167.28;4241985;28;19924;-57
2024/03/08 08:36:16;;;;;;;;;;;;;;;19.95;30.59;100156.47;4241701;28;19920;-56
2024/03/08 08:38:17;;;;;;;;;;;;;;;19.95;30.64;100158.25;4244556;27;19949;-55
2024/03/08 08:40:19;;;;;;;;;;;;;;;19.95;30.62;100153.78;4246209;28;19919;-55
2024/03/08 08:42:20;;;;;;;;;;;;;;;19.97;30.76;100150.97;4242061;28;19927;-55
2024/03/08 08:44:22;;;;;;;;;;;;;;;20.04;30.90;100149.50;4245438;28;20318;-56
2024/03/08 08:46:24;;;;;;;;;;;;;;;20.06;30.58;100144.00;4240450;28;19919;-58
2024/03/08 08:48:30;;;;;;;;;;;;;;;20.06;30.88;100142.22;4246877;28;19927;-57
2024/03/08 08:50:32;;;;;;;;;;;;;;;20.06;30.68;100138.66;4238299;28;19934;-57
2024/03/08 08:52:34;;;;;;;;;;;;;;;20.05;30.99;100144.97;4233815;28;20313;-57
2024/03/08 08:54:38;;;;;;;;;;;;;;;20.03;30.86;100138.94;4225778;28;20488;-57
2024/03/08 08:56:40;;;;;;;;;;;;;;;20.02;30.63;100138.09;4243069;28;19973;-58
2024/03/08 08:58:42;;;;;;;;;;;;;;;20.06;30.74;100133.34;4239270;28;20373;-57
2024/03/08 09:00:44;;;;;;;;;;;;;;;20.06;30.80;100125.31;4234130;28;19919;-59
2024/03/08 09:02:46;;;;;;;;;;;;;;;20.06;30.72;100123.53;4242858;28;20002;-59
2024/03/08 09:04:48;;;;;;;;;;;;;;;20.08;30.51;100126.88;4239425;28;19920;-58
2024/03/08 09:06:50;;;;;;;;;;;;;;;20.07;30.56;100121.69;4238472;28;19972;-58
2024/03/08 09:08:52;;;;;;;;;;;;;;;20.07;30.56;100116.34;4239119;28;20369;-57
2024/03/08 09:10:54;;;;;;;;;;;;;;;20.07;30.80;100116.34;4241791;27;19920;-58
2024/03/08 09:12:56;;;;;;;;;;;;;;;20.04;30.72;100097.94;4248405;27;20373;-56
2024/03/08 09:14:57;;;;;;;;;;;;;;;20.08;30.41;100104.69;4248429;27;19993;-58
2024/03/08 09:16:59;;;;;;;;;;;;;;;20.11;30.45;100101.78;4238360;27;19958;-60
2024/03/08 09:19:00;;;;;;;;;;;;;;;20.09;30.60;100093.88;4249772;27;19919;-56
2024/03/08 09:21:02;;;;;;;;;;;;;;;20.09;30.76;100096.53;4242644;27;19919;-55
2024/03/08 09:23:04;;;;;;;;;;;;;;;20.13;30.49;100086.44;4232728;28;19919;-56
2024/03/08 09:25:07;;;;;;;;;;;;;;;20.10;30.61;100095.56;4233999;27;20105;-53
2024/03/08 09:27:10;;;;;;;;;;;;;;;20.11;30.56;100081.25;4224333;28;19924;-56
2024/03/08 09:29:12;;;;;;;;;;;;;;;20.16;30.79;100078.19;4225142;28;20291;-61
2024/03/08 09:31:16;;;;;;;;;;;;;;;20.16;30.81;100083.53;4244441;27;19923;-58
2024/03/08 09:33:19;;;;;;;;;;;;;;;20.19;30.50;100077.06;4245284;27;19924;-57
2024/03/08 09:35:24;;;;;;;;;;;;;;;20.19;30.42;100075.25;4240058;27;19923;-57
2024/03/08 09:37:25;;;;;;;;;;;;;;;20.22;30.52;100074.13;4237287;27;20433;-59
2024/03/08 09:39:27;;;;;;;;;;;;;;;20.23;30.40;100067.81;4234253;27;19924;-59
2024/03/08 09:41:31;;;;;;;;;;;;;;;20.24;30.84;100077.50;4243374;27;19934;-57
2024/03/08 09:43:33;;;;;;;;;;;;;;;20.18;30.68;100070.88;4241692;27;20090;-59
2024/03/08 09:45:36;;;;;;;;;;;;;;;20.16;30.80;100072.84;4249257;27;19920;-57
2024/03/08 09:47:39;;;;;;;;;;;;;;;20.16;30.62;100067.50;4247439;27;19931;-56
2024/03/08 09:49:41;;;;;;;;;;;;;;;20.17;30.79;100061.19;4248685;27;19927;-56
2024/03/08 09:51:42;;;;;;;;;;;;;;;20.24;30.58;100057.03;4244962;27;20010;-55
2024/03/08 09:53:44;;;;;;;;;;;;;;;20.26;30.80;100059.53;4232256;28;19919;-56
2024/03/08 09:55:46;;;;;;;;;;;;;;;20.24;30.80;100049.00;4251507;27;19935;-55
2024/03/08 09:58:16;;;;;;;;;;;;;;;20.26;30.83;100047.03;4227101;27;19947;-56
2024/03/08 10:00:23;;;;;;;;;;;;;;;20.24;30.66;100043.66;4240720;27;19918;-57
2024/03/08 10:02:24;;;;;;;;;;;;;;;20.23;30.59;100038.44;4248113;27;20010;-57
2024/03/08 10:04:28;;;;;;;;;;;;;;;20.24;30.91;100032.13;4240781;27;19923;-55
2024/03/08 10:06:31;;;;;;;;;;;;;;;20.25;30.87;100031.16;4233141;27;20382;-56
2024/03/08 10:08:32;;;;;;;;;;;;;;;20.27;30.80;100026.53;4233804;27;19919;-56
2024/03/08 10:10:35;;;;;;;;;;;;;;;20.27;30.75;100022.03;4248638;27;19930;-58
2024/03/08 10:12:38;;;;;;;;;;;;;;;20.31;30.65;100016.44;4242947;27;19976;-58
2024/03/08 10:14:40;;;;;;;;;;;;;;;20.29;30.92;100013.03;4242564;27;19920;-58
2024/03/08 10:16:41;;;;;;;;;;;;;;;20.30;30.66;100012.06;4247841;27;19919;-58
2024/03/08 10:18:44;;;;;;;;;;;;;;;20.34;30.60;100014.34;4244274;27;20322;-59
2024/03/08 10:20:46;;;;;;;;;;;;;;;20.34;30.89;100016.13;4234135;27;19920;-59
2024/03/08 10:22:47;;;;;;;;;;;;;;;20.34;30.89;100003.66;4242808;27;19933;-57
2024/03/08 10:25:08;;;;;;;;;;;;;;;20.35;30.83;100009.81;4237147;27;20371;-57
2024/03/08 10:27:09;;;;;;;;;;;;;;;20.36;30.76;100008.84;4232652;27;19931;-58
2024/03/08 10:29:15;;;;;;;;;;;;;;;20.37;30.76;100006.03;4237647;27;20386;-58
2024/03/08 10:31:17;;;;;;;;;;;;;;;20.37;30.85;100000.69;4231411;28;20022;-61
2024/03/08 10:33:20;;;;;;;;;;;;;;;20.38;30.94;100001.56;4234207;27;20404;-57